Current Conditions
Misty
Conditions



Pressure
1024.92 (hPa) - 30.27 (inHG)
Visibility

2.2 (km) - 1.4 (miles)
   Temperature
4  °C
39°F
3  °C
Dewpoint
93  %
 Humidity
   Wind Speed
13  km/h
7  kts
8  mph
3.6  m/s
   Wind Direction
 180°
Due South
   Airport Data
EHLW
Location Leeuwarden Air Base 10 km (6.22 mi)
Metar :EHLW 232325Z AUTO 18007KT 120V220 2200 BR SCT001 OVC003 04/03 Q1025 RED
Fri 24th January 00:25 am
   Raw Metar Info
Raw METAR is the most common format in the world for the transmission of observational weather data. It is highly standardized through the International Civil Aviation Organization (ICAO), which allows it to be understood throughout most of the world.
   API Info
Data Provided by
https://www.checkwx.com/weather/EHLW
   © Info
CSS/SVG/PHP scripts were developed by weather34.com for use in the weather34 template © 2015-2020

Guide Info provided by Metar-Wikipedia